This is the latest recevied weather packets stored in our database for station/object M0ADS. If no packets are shown the sender has not sent any weather packets the latest 1 day(s).
| Time | Temp. | Humidity | Pressure | Rain* | Wind** | Luminosity | Snow |
|---|---|---|---|---|---|---|---|
| 1836274491 | 15° C | 89% | 1009 hPa | 0 mm | 0 m/s | - | - |
| 1836274339 | 15° C | 89% | 1009.2 hPa | 0 mm | 0 m/s | - | - |
| 1778045016 | 4.44° C | 85% | 1014.4 hPa | 0 mm | 0 m/s | - | - |
| 1778044115 | 3.89° C | 85% | 1014.4 hPa | 0 mm | 0 m/s | - | - |
| 1778043213 | 3.89° C | 86% | 1014.4 hPa | 0 mm | 0 m/s | - | - |
| 1778042313 | 3.89° C | 85% | 1014.5 hPa | 0 mm | 0 m/s | - | - |
| 1778041413 | 3.89° C | 85% | 1014.5 hPa | 0 mm | 0 m/s | - | - |
| 1778040512 | 4.44° C | 85% | 1014.4 hPa | 0 mm | 0 m/s | - | - |
| 1778039612 | 4.44° C | 84% | 1014.3 hPa | 0 mm | 0 m/s | - | - |
| 1778038713 | 4.44° C | 84% | 1014.4 hPa | 0 mm | 0 m/s | - | - |
| 1778037813 | 4.44° C | 83% | 1014.5 hPa | 0 mm | 0 m/s | - | - |
| 1778036913 | 5° C | 83% | 1014.5 hPa | 0 mm | 0 m/s | - | - |
| 1778036012 | 5° C | 82% | 1014.6 hPa | 0 mm | 0 m/s | - | - |
| 1778035113 | 5.56° C | 82% | 1014.5 hPa | 0 mm | 0 m/s | - | - |
| 1778034212 | 5.56° C | 81% | 1014.4 hPa | 0 mm | 0 m/s | - | - |
| 1778033313 | 6.11° C | 81% | 1014.6 hPa | 0 mm | 0 m/s | - | - |
| 1778032411 | 6.11° C | 81% | 1014.6 hPa | 0 mm | 0 m/s | - | - |
| 1778031510 | 6.11° C | 81% | 1014.8 hPa | 0 mm | 0 m/s | - | - |
| 1778030611 | 6.11° C | 81% | 1014.7 hPa | 0 mm | 0 m/s | - | - |
| 1778029708 | 6.11° C | 81% | 1014.8 hPa | 0 mm | 0 m/s | - | - |
| 1778028806 | 6.67° C | 81% | 1014.9 hPa | 0 mm | 0 m/s | - | - |
| 1778027906 | 6.67° C | 81% | 1014.9 hPa | 0 mm | 0 m/s | - | - |
| 1778027007 | 6.67° C | 80% | 1014.9 hPa | 0 mm | 0 m/s | - | - |
| 1778026106 | 6.67° C | 80% | 1015 hPa | 0 mm | 0 m/s | - | - |
| 1778025207 | 6.67° C | 80% | 1015.2 hPa | 0 mm | 0 m/s | - | - |
* Rain latest hour (hover to see other rain measurements)
** Current wind speed in m/s (hover to see current wind gust speed)